sensor_id;sensor_type;location;lat;lon;timestamp;P1;durP1;ratioP1;P2;durP2;ratioP2
5195;SDS011;2617;51.006;12.436;2022-12-07T00:02:30;10.23;;;6.33;;
5195;SDS011;2617;51.006;12.436;2022-12-07T00:07:32;8.83;;;6.50;;
5195;SDS011;2617;51.006;12.436;2022-12-07T00:12:35;9.23;;;6.73;;
5195;SDS011;2617;51.006;12.436;2022-12-07T00:17:36;9.97;;;7.20;;
5195;SDS011;2617;51.006;12.436;2022-12-07T00:22:38;7.43;;;5.43;;
5195;SDS011;2617;51.006;12.436;2022-12-07T00:27:40;11.65;;;7.40;;
5195;SDS011;2617;51.006;12.436;2022-12-07T00:32:43;7.85;;;6.00;;
5195;SDS011;2617;51.006;12.436;2022-12-07T00:37:45;7.57;;;5.50;;
5195;SDS011;2617;51.006;12.436;2022-12-07T00:42:46;8.13;;;5.70;;
5195;SDS011;2617;51.006;12.436;2022-12-07T00:47:48;7.40;;;5.17;;
5195;SDS011;2617;51.006;12.436;2022-12-07T00:52:50;6.37;;;4.83;;
5195;SDS011;2617;51.006;12.436;2022-12-07T00:57:51;8.43;;;5.00;;
5195;SDS011;2617;51.006;12.436;2022-12-07T01:02:53;7.50;;;5.85;;
5195;SDS011;2617;51.006;12.436;2022-12-07T01:07:56;7.40;;;5.80;;
5195;SDS011;2617;51.006;12.436;2022-12-07T01:12:58;7.70;;;5.03;;
5195;SDS011;2617;51.006;12.436;2022-12-07T01:18:00;6.37;;;4.90;;
5195;SDS011;2617;51.006;12.436;2022-12-07T01:23:02;8.53;;;5.27;;
5195;SDS011;2617;51.006;12.436;2022-12-07T01:28:05;6.77;;;5.40;;
5195;SDS011;2617;51.006;12.436;2022-12-07T01:33:07;8.23;;;5.67;;
5195;SDS011;2617;51.006;12.436;2022-12-07T01:38:08;7.07;;;5.00;;
5195;SDS011;2617;51.006;12.436;2022-12-07T01:43:17;6.57;;;4.53;;
5195;SDS011;2617;51.006;12.436;2022-12-07T01:48:22;8.93;;;5.37;;
5195;SDS011;2617;51.006;12.436;2022-12-07T01:53:23;11.30;;;7.30;;
5195;SDS011;2617;51.006;12.436;2022-12-07T01:58:24;8.80;;;5.65;;
5195;SDS011;2617;51.006;12.436;2022-12-07T02:03:30;8.23;;;5.47;;
5195;SDS011;2617;51.006;12.436;2022-12-07T02:08:29;10.47;;;5.80;;
5195;SDS011;2617;51.006;12.436;2022-12-07T02:13:32;9.53;;;6.07;;
5195;SDS011;2617;51.006;12.436;2022-12-07T02:18:38;7.80;;;6.07;;
5195;SDS011;2617;51.006;12.436;2022-12-07T02:23:40;10.47;;;6.20;;
5195;SDS011;2617;51.006;12.436;2022-12-07T02:39:20;8.05;;;5.47;;
5195;SDS011;2617;51.006;12.436;2022-12-07T02:44:22;7.50;;;5.07;;
5195;SDS011;2617;51.006;12.436;2022-12-07T02:49:23;7.70;;;4.50;;
5195;SDS011;2617;51.006;12.436;2022-12-07T02:54:25;7.43;;;4.40;;
5195;SDS011;2617;51.006;12.436;2022-12-07T02:59:44;6.97;;;4.63;;
5195;SDS011;2617;51.006;12.436;2022-12-07T03:04:59;6.53;;;4.33;;
5195;SDS011;2617;51.006;12.436;2022-12-07T03:15:05;6.70;;;3.77;;
5195;SDS011;2617;51.006;12.436;2022-12-07T03:20:07;6.20;;;4.60;;
5195;SDS011;2617;51.006;12.436;2022-12-07T03:25:10;6.77;;;3.93;;
5195;SDS011;2617;51.006;12.436;2022-12-07T03:30:14;9.63;;;3.97;;
5195;SDS011;2617;51.006;12.436;2022-12-07T03:35:27;5.30;;;3.30;;
5195;SDS011;2617;51.006;12.436;2022-12-07T03:40:34;3.80;;;3.20;;
5195;SDS011;2617;51.006;12.436;2022-12-07T03:45:37;4.07;;;3.00;;
5195;SDS011;2617;51.006;12.436;2022-12-07T03:50:44;4.00;;;3.60;;
5195;SDS011;2617;51.006;12.436;2022-12-07T03:55:46;4.05;;;2.97;;
5195;SDS011;2617;51.006;12.436;2022-12-07T04:00:48;3.65;;;3.35;;
5195;SDS011;2617;51.006;12.436;2022-12-07T04:05:51;3.77;;;3.03;;
5195;SDS011;2617;51.006;12.436;2022-12-07T04:10:53;2.70;;;2.30;;
5195;SDS011;2617;51.006;12.436;2022-12-07T04:15:55;3.27;;;2.60;;
5195;SDS011;2617;51.006;12.436;2022-12-07T04:20:57;2.97;;;2.67;;
5195;SDS011;2617;51.006;12.436;2022-12-07T04:25:58;2.83;;;2.40;;
5195;SDS011;2617;51.006;12.436;2022-12-07T04:31:00;2.43;;;2.27;;
5195;SDS011;2617;51.006;12.436;2022-12-07T04:36:03;3.57;;;3.00;;
5195;SDS011;2617;51.006;12.436;2022-12-07T04:41:05;2.73;;;2.30;;
5195;SDS011;2617;51.006;12.436;2022-12-07T04:46:06;2.63;;;2.40;;
5195;SDS011;2617;51.006;12.436;2022-12-07T04:51:08;1.93;;;1.80;;
5195;SDS011;2617;51.006;12.436;2022-12-07T04:56:10;3.47;;;3.17;;
5195;SDS011;2617;51.006;12.436;2022-12-07T05:01:12;2.40;;;2.20;;
5195;SDS011;2617;51.006;12.436;2022-12-07T05:06:13;2.43;;;2.23;;
5195;SDS011;2617;51.006;12.436;2022-12-07T05:11:16;3.03;;;2.03;;
5195;SDS011;2617;51.006;12.436;2022-12-07T05:16:23;3.50;;;3.20;;
5195;SDS011;2617;51.006;12.436;2022-12-07T05:21:26;2.80;;;2.60;;
5195;SDS011;2617;51.006;12.436;2022-12-07T05:31:29;2.50;;;2.30;;
5195;SDS011;2617;51.006;12.436;2022-12-07T05:36:31;2.97;;;2.67;;
5195;SDS011;2617;51.006;12.436;2022-12-07T05:41:33;5.03;;;3.40;;
5195;SDS011;2617;51.006;12.436;2022-12-07T05:46:40;7.87;;;3.30;;
5195;SDS011;2617;51.006;12.436;2022-12-07T05:51:42;5.13;;;2.90;;
5195;SDS011;2617;51.006;12.436;2022-12-07T05:56:44;3.80;;;3.40;;
5195;SDS011;2617;51.006;12.436;2022-12-07T06:01:47;3.83;;;3.40;;
5195;SDS011;2617;51.006;12.436;2022-12-07T06:06:49;4.10;;;3.00;;
5195;SDS011;2617;51.006;12.436;2022-12-07T06:11:51;3.60;;;3.27;;
5195;SDS011;2617;51.006;12.436;2022-12-07T06:16:58;6.30;;;4.03;;
5195;SDS011;2617;51.006;12.436;2022-12-07T06:22:00;4.90;;;3.50;;
5195;SDS011;2617;51.006;12.436;2022-12-07T06:27:03;9.53;;;3.83;;
5195;SDS011;2617;51.006;12.436;2022-12-07T06:32:05;4.60;;;3.27;;
5195;SDS011;2617;51.006;12.436;2022-12-07T06:37:06;7.73;;;4.63;;
5195;SDS011;2617;51.006;12.436;2022-12-07T06:42:08;4.37;;;3.27;;
5195;SDS011;2617;51.006;12.436;2022-12-07T06:47:10;5.47;;;3.85;;
5195;SDS011;2617;51.006;12.436;2022-12-07T06:52:12;6.23;;;4.57;;
5195;SDS011;2617;51.006;12.436;2022-12-07T06:57:14;7.40;;;4.77;;
5195;SDS011;2617;51.006;12.436;2022-12-07T07:02:15;6.30;;;4.37;;
5195;SDS011;2617;51.006;12.436;2022-12-07T07:07:18;8.25;;;4.15;;
5195;SDS011;2617;51.006;12.436;2022-12-07T07:12:20;5.40;;;4.43;;
5195;SDS011;2617;51.006;12.436;2022-12-07T07:17:22;8.60;;;5.80;;
5195;SDS011;2617;51.006;12.436;2022-12-07T07:22:23;6.20;;;5.00;;
5195;SDS011;2617;51.006;12.436;2022-12-07T07:27:25;7.03;;;4.90;;
5195;SDS011;2617;51.006;12.436;2022-12-07T07:32:27;7.10;;;4.20;;
5195;SDS011;2617;51.006;12.436;2022-12-07T07:37:29;6.37;;;4.23;;
5195;SDS011;2617;51.006;12.436;2022-12-07T07:42:31;8.33;;;5.10;;
5195;SDS011;2617;51.006;12.436;2022-12-07T07:47:32;8.10;;;5.00;;
5195;SDS011;2617;51.006;12.436;2022-12-07T07:52:34;10.23;;;5.90;;
5195;SDS011;2617;51.006;12.436;2022-12-07T07:57:37;8.13;;;4.87;;
5195;SDS011;2617;51.006;12.436;2022-12-07T08:02:38;7.50;;;5.35;;
5195;SDS011;2617;51.006;12.436;2022-12-07T08:07:40;8.43;;;5.57;;
5195;SDS011;2617;51.006;12.436;2022-12-07T08:12:42;8.77;;;5.30;;
5195;SDS011;2617;51.006;12.436;2022-12-07T08:18:01;13.93;;;6.93;;
5195;SDS011;2617;51.006;12.436;2022-12-07T08:23:03;10.00;;;5.17;;
5195;SDS011;2617;51.006;12.436;2022-12-07T08:28:05;9.80;;;6.50;;
5195;SDS011;2617;51.006;12.436;2022-12-07T08:33:07;6.63;;;5.43;;
5195;SDS011;2617;51.006;12.436;2022-12-07T08:38:08;11.32;;;6.37;;
5195;SDS011;2617;51.006;12.436;2022-12-07T08:43:11;9.60;;;5.87;;
5195;SDS011;2617;51.006;12.436;2022-12-07T08:48:12;8.37;;;5.60;;
5195;SDS011;2617;51.006;12.436;2022-12-07T08:53:14;10.10;;;4.73;;
5195;SDS011;2617;51.006;12.436;2022-12-07T08:58:16;8.70;;;5.27;;
5195;SDS011;2617;51.006;12.436;2022-12-07T09:03:19;6.77;;;5.03;;
5195;SDS011;2617;51.006;12.436;2022-12-07T09:08:22;9.43;;;5.75;;
5195;SDS011;2617;51.006;12.436;2022-12-07T09:13:24;6.30;;;4.70;;
5195;SDS011;2617;51.006;12.436;2022-12-07T09:18:26;10.43;;;4.83;;
5195;SDS011;2617;51.006;12.436;2022-12-07T09:23:27;9.53;;;5.57;;
5195;SDS011;2617;51.006;12.436;2022-12-07T09:28:30;6.23;;;4.73;;
5195;SDS011;2617;51.006;12.436;2022-12-07T09:33:31;8.10;;;4.67;;
5195;SDS011;2617;51.006;12.436;2022-12-07T09:38:33;8.43;;;4.90;;
5195;SDS011;2617;51.006;12.436;2022-12-07T09:43:35;8.23;;;5.37;;
5195;SDS011;2617;51.006;12.436;2022-12-07T09:48:37;8.80;;;5.07;;
5195;SDS011;2617;51.006;12.436;2022-12-07T09:53:38;5.75;;;4.50;;
5195;SDS011;2617;51.006;12.436;2022-12-07T09:58:41;5.17;;;3.83;;
5195;SDS011;2617;51.006;12.436;2022-12-07T10:03:48;6.90;;;4.50;;
5195;SDS011;2617;51.006;12.436;2022-12-07T10:08:55;6.30;;;4.20;;
5195;SDS011;2617;51.006;12.436;2022-12-07T10:14:09;9.30;;;3.67;;
5195;SDS011;2617;51.006;12.436;2022-12-07T10:19:01;5.37;;;3.93;;
5195;SDS011;2617;51.006;12.436;2022-12-07T10:24:01;5.70;;;4.00;;
5195;SDS011;2617;51.006;12.436;2022-12-07T10:34:24;5.90;;;3.70;;
5195;SDS011;2617;51.006;12.436;2022-12-07T10:39:26;8.67;;;4.57;;
5195;SDS011;2617;51.006;12.436;2022-12-07T10:44:30;4.37;;;2.87;;
5195;SDS011;2617;51.006;12.436;2022-12-07T10:49:38;5.20;;;3.67;;
5195;SDS011;2617;51.006;12.436;2022-12-07T11:00:25;3.30;;;2.80;;
5195;SDS011;2617;51.006;12.436;2022-12-07T11:05:30;3.63;;;2.60;;
5195;SDS011;2617;51.006;12.436;2022-12-07T11:21:21;5.03;;;2.60;;
5195;SDS011;2617;51.006;12.436;2022-12-07T11:37:18;2.20;;;1.80;;
5195;SDS011;2617;51.006;12.436;2022-12-07T11:42:20;5.13;;;1.87;;
5195;SDS011;2617;51.006;12.436;2022-12-07T11:47:28;2.00;;;1.90;;
5195;SDS011;2617;51.006;12.436;2022-12-07T11:52:43;3.33;;;2.07;;
5195;SDS011;2617;51.006;12.436;2022-12-07T11:57:39;3.47;;;2.00;;
5195;SDS011;2617;51.006;12.436;2022-12-07T12:02:46;2.00;;;1.80;;
5195;SDS011;2617;51.006;12.436;2022-12-07T12:08:04;2.40;;;2.20;;
5195;SDS011;2617;51.006;12.436;2022-12-07T12:13:08;4.20;;;2.20;;
5195;SDS011;2617;51.006;12.436;2022-12-07T12:23:24;3.07;;;2.13;;
5195;SDS011;2617;51.006;12.436;2022-12-07T12:28:27;3.60;;;1.70;;
5195;SDS011;2617;51.006;12.436;2022-12-07T12:33:32;1.70;;;1.60;;
5195;SDS011;2617;51.006;12.436;2022-12-07T12:38:34;2.07;;;1.50;;
5195;SDS011;2617;51.006;12.436;2022-12-07T12:43:41;2.43;;;1.80;;
5195;SDS011;2617;51.006;12.436;2022-12-07T12:48:48;1.65;;;1.40;;
5195;SDS011;2617;51.006;12.436;2022-12-07T12:53:51;2.00;;;1.57;;
5195;SDS011;2617;51.006;12.436;2022-12-07T12:59:17;2.43;;;1.60;;
5195;SDS011;2617;51.006;12.436;2022-12-07T13:03:55;0.87;;;0.87;;
5195;SDS011;2617;51.006;12.436;2022-12-07T13:08:58;1.70;;;1.40;;
5195;SDS011;2617;51.006;12.436;2022-12-07T13:24:27;1.80;;;1.10;;
5195;SDS011;2617;51.006;12.436;2022-12-07T13:29:29;1.00;;;0.93;;
5195;SDS011;2617;51.006;12.436;2022-12-07T13:34:39;1.83;;;1.42;;
5195;SDS011;2617;51.006;12.436;2022-12-07T13:39:47;0.80;;;0.70;;
5195;SDS011;2617;51.006;12.436;2022-12-07T13:44:48;2.00;;;0.90;;
5195;SDS011;2617;51.006;12.436;2022-12-07T13:49:51;1.67;;;1.33;;
5195;SDS011;2617;51.006;12.436;2022-12-07T13:54:56;1.20;;;0.83;;
5195;SDS011;2617;51.006;12.436;2022-12-07T13:59:57;1.20;;;1.20;;
5195;SDS011;2617;51.006;12.436;2022-12-07T14:10:22;1.17;;;1.17;;
5195;SDS011;2617;51.006;12.436;2022-12-07T14:15:28;2.57;;;1.20;;
5195;SDS011;2617;51.006;12.436;2022-12-07T14:20:31;1.53;;;0.90;;
5195;SDS011;2617;51.006;12.436;2022-12-07T14:25:49;1.37;;;0.98;;
5195;SDS011;2617;51.006;12.436;2022-12-07T14:30:51;0.93;;;0.87;;
5195;SDS011;2617;51.006;12.436;2022-12-07T14:35:52;0.73;;;0.73;;
5195;SDS011;2617;51.006;12.436;2022-12-07T14:40:56;2.67;;;1.00;;
5195;SDS011;2617;51.006;12.436;2022-12-07T14:46:00;1.00;;;1.00;;
5195;SDS011;2617;51.006;12.436;2022-12-07T14:51:02;6.80;;;2.27;;
5195;SDS011;2617;51.006;12.436;2022-12-07T14:56:04;5.90;;;2.57;;
5195;SDS011;2617;51.006;12.436;2022-12-07T15:01:06;3.10;;;2.80;;
5195;SDS011;2617;51.006;12.436;2022-12-07T15:06:10;1.00;;;1.00;;
5195;SDS011;2617;51.006;12.436;2022-12-07T15:11:12;4.50;;;1.67;;
5195;SDS011;2617;51.006;12.436;2022-12-07T15:16:13;3.45;;;1.60;;
5195;SDS011;2617;51.006;12.436;2022-12-07T15:21:15;1.43;;;1.00;;
5195;SDS011;2617;51.006;12.436;2022-12-07T15:26:16;0.93;;;0.83;;
5195;SDS011;2617;51.006;12.436;2022-12-07T15:31:18;1.47;;;0.93;;
5195;SDS011;2617;51.006;12.436;2022-12-07T15:36:21;1.20;;;1.00;;
5195;SDS011;2617;51.006;12.436;2022-12-07T15:41:23;3.03;;;0.90;;
5195;SDS011;2617;51.006;12.436;2022-12-07T15:46:32;0.95;;;0.95;;
5195;SDS011;2617;51.006;12.436;2022-12-07T15:51:34;4.20;;;3.62;;
5195;SDS011;2617;51.006;12.436;2022-12-07T15:56:36;1.20;;;1.20;;
5195;SDS011;2617;51.006;12.436;2022-12-07T16:01:38;3.70;;;1.50;;
5195;SDS011;2617;51.006;12.436;2022-12-07T16:06:39;1.63;;;1.10;;
5195;SDS011;2617;51.006;12.436;2022-12-07T16:11:42;1.43;;;1.33;;
5195;SDS011;2617;51.006;12.436;2022-12-07T16:16:44;4.53;;;4.13;;
5195;SDS011;2617;51.006;12.436;2022-12-07T16:21:45;2.15;;;1.70;;
5195;SDS011;2617;51.006;12.436;2022-12-07T16:26:47;1.83;;;1.50;;
5195;SDS011;2617;51.006;12.436;2022-12-07T16:31:49;7.10;;;1.60;;
5195;SDS011;2617;51.006;12.436;2022-12-07T16:36:51;1.60;;;1.50;;
5195;SDS011;2617;51.006;12.436;2022-12-07T16:41:52;2.23;;;1.40;;
5195;SDS011;2617;51.006;12.436;2022-12-07T16:46:55;3.00;;;0.90;;
5195;SDS011;2617;51.006;12.436;2022-12-07T16:51:57;3.47;;;3.17;;
5195;SDS011;2617;51.006;12.436;2022-12-07T16:56:58;1.67;;;1.57;;
5195;SDS011;2617;51.006;12.436;2022-12-07T17:02:00;1.00;;;1.00;;
5195;SDS011;2617;51.006;12.436;2022-12-07T17:07:02;5.80;;;1.30;;
5195;SDS011;2617;51.006;12.436;2022-12-07T17:12:04;3.80;;;1.83;;
5195;SDS011;2617;51.006;12.436;2022-12-07T17:17:05;1.60;;;1.50;;
5195;SDS011;2617;51.006;12.436;2022-12-07T17:22:07;1.00;;;1.00;;
5195;SDS011;2617;51.006;12.436;2022-12-07T17:27:09;1.53;;;1.43;;
5195;SDS011;2617;51.006;12.436;2022-12-07T17:32:11;3.50;;;2.17;;
5195;SDS011;2617;51.006;12.436;2022-12-07T17:37:12;6.63;;;2.47;;
5195;SDS011;2617;51.006;12.436;2022-12-07T17:42:14;2.77;;;2.40;;
5195;SDS011;2617;51.006;12.436;2022-12-07T17:47:21;7.80;;;6.97;;
5195;SDS011;2617;51.006;12.436;2022-12-07T17:52:24;10.37;;;8.07;;
5195;SDS011;2617;51.006;12.436;2022-12-07T17:57:31;3.75;;;3.35;;
5195;SDS011;2617;51.006;12.436;2022-12-07T18:02:34;1.73;;;1.63;;
5195;SDS011;2617;51.006;12.436;2022-12-07T18:07:36;1.70;;;1.60;;
5195;SDS011;2617;51.006;12.436;2022-12-07T18:12:37;2.17;;;1.97;;
5195;SDS011;2617;51.006;12.436;2022-12-07T18:17:40;1.50;;;1.40;;
5195;SDS011;2617;51.006;12.436;2022-12-07T18:22:41;1.98;;;1.80;;
5195;SDS011;2617;51.006;12.436;2022-12-07T18:27:43;4.80;;;1.83;;
5195;SDS011;2617;51.006;12.436;2022-12-07T18:32:45;3.28;;;2.00;;
5195;SDS011;2617;51.006;12.436;2022-12-07T18:37:47;5.23;;;2.10;;
5195;SDS011;2617;51.006;12.436;2022-12-07T18:42:49;2.17;;;1.73;;
5195;SDS011;2617;51.006;12.436;2022-12-07T18:47:51;1.80;;;1.70;;
5195;SDS011;2617;51.006;12.436;2022-12-07T18:52:55;2.23;;;2.10;;
5195;SDS011;2617;51.006;12.436;2022-12-07T18:57:56;2.10;;;1.90;;
5195;SDS011;2617;51.006;12.436;2022-12-07T19:02:58;3.80;;;1.50;;
5195;SDS011;2617;51.006;12.436;2022-12-07T19:08:00;6.70;;;2.97;;
5195;SDS011;2617;51.006;12.436;2022-12-07T19:13:02;1.77;;;1.50;;
5195;SDS011;2617;51.006;12.436;2022-12-07T19:18:04;2.55;;;2.17;;
5195;SDS011;2617;51.006;12.436;2022-12-07T19:23:06;1.53;;;1.40;;
5195;SDS011;2617;51.006;12.436;2022-12-07T19:28:08;1.90;;;1.77;;
5195;SDS011;2617;51.006;12.436;2022-12-07T19:33:09;3.00;;;1.90;;
5195;SDS011;2617;51.006;12.436;2022-12-07T19:38:11;2.47;;;2.20;;
5195;SDS011;2617;51.006;12.436;2022-12-07T19:43:14;3.47;;;2.30;;
5195;SDS011;2617;51.006;12.436;2022-12-07T19:48:15;2.73;;;2.10;;
5195;SDS011;2617;51.006;12.436;2022-12-07T19:53:18;5.55;;;1.80;;
5195;SDS011;2617;51.006;12.436;2022-12-07T19:58:19;2.50;;;2.30;;
5195;SDS011;2617;51.006;12.436;2022-12-07T20:03:21;6.20;;;2.20;;
5195;SDS011;2617;51.006;12.436;2022-12-07T20:08:23;3.20;;;2.20;;
5195;SDS011;2617;51.006;12.436;2022-12-07T20:13:24;8.40;;;3.23;;
5195;SDS011;2617;51.006;12.436;2022-12-07T20:18:29;8.77;;;4.90;;
5195;SDS011;2617;51.006;12.436;2022-12-07T20:23:32;4.23;;;3.63;;
5195;SDS011;2617;51.006;12.436;2022-12-07T20:28:33;3.23;;;2.70;;
5195;SDS011;2617;51.006;12.436;2022-12-07T20:33:36;4.90;;;4.17;;
5195;SDS011;2617;51.006;12.436;2022-12-07T20:38:37;14.07;;;11.60;;
5195;SDS011;2617;51.006;12.436;2022-12-07T20:43:40;7.30;;;3.83;;
5195;SDS011;2617;51.006;12.436;2022-12-07T20:48:42;8.00;;;5.12;;
5195;SDS011;2617;51.006;12.436;2022-12-07T20:53:43;4.90;;;2.57;;
5195;SDS011;2617;51.006;12.436;2022-12-07T20:58:45;3.23;;;2.50;;
5195;SDS011;2617;51.006;12.436;2022-12-07T21:03:47;3.73;;;2.13;;
5195;SDS011;2617;51.006;12.436;2022-12-07T21:08:50;15.23;;;5.60;;
5195;SDS011;2617;51.006;12.436;2022-12-07T21:13:50;2.43;;;2.33;;
5195;SDS011;2617;51.006;12.436;2022-12-07T21:18:53;3.57;;;3.30;;
5195;SDS011;2617;51.006;12.436;2022-12-07T21:23:55;6.07;;;5.07;;
5195;SDS011;2617;51.006;12.436;2022-12-07T21:28:56;6.83;;;2.73;;
5195;SDS011;2617;51.006;12.436;2022-12-07T21:34:00;6.07;;;2.20;;
5195;SDS011;2617;51.006;12.436;2022-12-07T21:39:01;2.37;;;2.17;;
5195;SDS011;2617;51.006;12.436;2022-12-07T21:44:04;4.87;;;2.23;;
5195;SDS011;2617;51.006;12.436;2022-12-07T21:49:06;3.20;;;2.10;;
5195;SDS011;2617;51.006;12.436;2022-12-07T21:54:09;2.17;;;2.00;;
5195;SDS011;2617;51.006;12.436;2022-12-07T21:59:12;3.43;;;2.00;;
5195;SDS011;2617;51.006;12.436;2022-12-07T22:04:16;5.00;;;2.73;;
5195;SDS011;2617;51.006;12.436;2022-12-07T22:09:17;3.95;;;2.25;;
5195;SDS011;2617;51.006;12.436;2022-12-07T22:14:18;3.87;;;2.43;;
5195;SDS011;2617;51.006;12.436;2022-12-07T22:19:26;3.13;;;2.60;;
5195;SDS011;2617;51.006;12.436;2022-12-07T22:24:28;3.23;;;2.57;;
5195;SDS011;2617;51.006;12.436;2022-12-07T22:29:30;2.67;;;2.42;;
5195;SDS011;2617;51.006;12.436;2022-12-07T22:34:32;2.95;;;2.72;;
5195;SDS011;2617;51.006;12.436;2022-12-07T22:39:35;2.37;;;2.17;;
5195;SDS011;2617;51.006;12.436;2022-12-07T22:44:36;3.90;;;2.90;;
5195;SDS011;2617;51.006;12.436;2022-12-07T22:49:39;2.37;;;2.27;;
5195;SDS011;2617;51.006;12.436;2022-12-07T22:54:40;4.17;;;2.37;;
5195;SDS011;2617;51.006;12.436;2022-12-07T22:59:42;2.80;;;2.60;;
5195;SDS011;2617;51.006;12.436;2022-12-07T23:04:44;4.07;;;1.97;;
5195;SDS011;2617;51.006;12.436;2022-12-07T23:09:46;2.53;;;2.12;;
5195;SDS011;2617;51.006;12.436;2022-12-07T23:14:47;6.20;;;2.90;;
5195;SDS011;2617;51.006;12.436;2022-12-07T23:19:49;6.33;;;2.90;;
5195;SDS011;2617;51.006;12.436;2022-12-07T23:24:52;2.15;;;2.00;;
5195;SDS011;2617;51.006;12.436;2022-12-07T23:29:55;3.97;;;2.90;;
5195;SDS011;2617;51.006;12.436;2022-12-07T23:34:57;3.27;;;2.60;;
5195;SDS011;2617;51.006;12.436;2022-12-07T23:39:58;3.10;;;2.83;;
5195;SDS011;2617;51.006;12.436;2022-12-07T23:45:01;2.73;;;2.50;;
5195;SDS011;2617;51.006;12.436;2022-12-07T23:50:02;8.03;;;2.73;;
5195;SDS011;2617;51.006;12.436;2022-12-07T23:55:05;2.83;;;2.50;;
